sensor_id;sensor_type;location;lat;lon;timestamp;pressure;altitude;pressure_sealevel;temperature;humidity
78094;BME280;67327;37.152;-76.406;2023-02-15T00:00:23;102233.57;;;41.26;8.14
78094;BME280;67327;37.152;-76.406;2023-02-15T00:02:48;102239.86;;;41.26;8.16
78094;BME280;67327;37.152;-76.406;2023-02-15T00:05:13;102239.15;;;41.24;8.16
78094;BME280;67327;37.152;-76.406;2023-02-15T00:07:38;102248.27;;;41.23;8.17
78094;BME280;67327;37.152;-76.406;2023-02-15T00:10:05;102248.75;;;41.44;8.19
78094;BME280;67327;37.152;-76.406;2023-02-15T00:12:29;102248.74;;;41.40;8.19
78094;BME280;67327;37.152;-76.406;2023-02-15T00:14:54;102248.33;;;41.38;8.21
78094;BME280;67327;37.152;-76.406;2023-02-15T00:17:20;102248.58;;;41.37;8.23
78094;BME280;67327;37.152;-76.406;2023-02-15T00:19:44;102254.17;;;41.10;8.22
78094;BME280;67327;37.152;-76.406;2023-02-15T00:22:09;102258.99;;;41.32;8.24
78094;BME280;67327;37.152;-76.406;2023-02-15T00:24:34;102251.09;;;41.12;8.21
78094;BME280;67327;37.152;-76.406;2023-02-15T00:26:59;102249.70;;;41.10;8.24
78094;BME280;67327;37.152;-76.406;2023-02-15T00:29:25;102249.51;;;41.09;8.24
78094;BME280;67327;37.152;-76.406;2023-02-15T00:31:50;102254.57;;;41.32;8.23
78094;BME280;67327;37.152;-76.406;2023-02-15T00:34:17;102258.23;;;41.33;8.23
78094;BME280;67327;37.152;-76.406;2023-02-15T00:36:40;102267.42;;;41.09;8.24
78094;BME280;67327;37.152;-76.406;2023-02-15T00:39:05;102275.58;;;41.08;8.24
78094;BME280;67327;37.152;-76.406;2023-02-15T00:41:30;102280.05;;;41.29;8.23
78094;BME280;67327;37.152;-76.406;2023-02-15T00:43:55;102278.13;;;41.03;8.23
78094;BME280;67327;37.152;-76.406;2023-02-15T00:46:20;102280.56;;;41.02;8.25
78094;BME280;67327;37.152;-76.406;2023-02-15T00:48:45;102280.41;;;41.00;8.25
78094;BME280;67327;37.152;-76.406;2023-02-15T00:51:10;102282.09;;;40.99;8.24
78094;BME280;67327;37.152;-76.406;2023-02-15T00:53:36;102290.88;;;40.97;8.24
78094;BME280;67327;37.152;-76.406;2023-02-15T00:56:01;102291.60;;;40.96;8.26
78094;BME280;67327;37.152;-76.406;2023-02-15T00:58:26;102299.50;;;41.21;8.24
78094;BME280;67327;37.152;-76.406;2023-02-15T01:00:52;102302.16;;;40.96;8.23
78094;BME280;67327;37.152;-76.406;2023-02-15T01:03:18;102302.47;;;40.96;8.24
78094;BME280;67327;37.152;-76.406;2023-02-15T01:05:41;102309.84;;;41.18;8.24
78094;BME280;67327;37.152;-76.406;2023-02-15T01:08:06;102317.71;;;40.91;8.25
78094;BME280;67327;37.152;-76.406;2023-02-15T01:10:32;102316.70;;;41.38;8.26
78094;BME280;67327;37.152;-76.406;2023-02-15T01:12:57;102319.03;;;40.90;8.24
78094;BME280;67327;37.152;-76.406;2023-02-15T01:15:22;102320.85;;;41.14;8.24
78094;BME280;67327;37.152;-76.406;2023-02-15T01:17:47;102319.86;;;40.87;8.24
78094;BME280;67327;37.152;-76.406;2023-02-15T01:20:12;102320.03;;;41.10;8.26
78094;BME280;67327;37.152;-76.406;2023-02-15T01:22:37;102321.01;;;40.84;8.26
78094;BME280;67327;37.152;-76.406;2023-02-15T01:25:02;102324.56;;;41.07;8.26
78094;BME280;67327;37.152;-76.406;2023-02-15T01:27:27;102327.80;;;41.30;8.24
78094;BME280;67327;37.152;-76.406;2023-02-15T01:29:52;102331.06;;;41.30;8.27
78094;BME280;67327;37.152;-76.406;2023-02-15T01:32:17;102330.16;;;40.81;8.28
78094;BME280;67327;37.152;-76.406;2023-02-15T01:34:43;102330.34;;;41.29;8.28
78094;BME280;67327;37.152;-76.406;2023-02-15T01:37:08;102331.06;;;40.80;8.27
78094;BME280;67327;37.152;-76.406;2023-02-15T01:39:33;102332.03;;;40.78;8.28
78094;BME280;67327;37.152;-76.406;2023-02-15T01:41:58;102330.83;;;41.04;8.27
78094;BME280;67327;37.152;-76.406;2023-02-15T01:44:46;102330.84;;;40.79;8.29
78094;BME280;67327;37.152;-76.406;2023-02-15T01:46:51;102333.90;;;40.81;8.28
78094;BME280;67327;37.152;-76.406;2023-02-15T01:49:16;102335.08;;;41.03;8.26
78094;BME280;67327;37.152;-76.406;2023-02-15T01:51:42;102331.40;;;41.00;8.29
78094;BME280;67327;37.152;-76.406;2023-02-15T01:54:08;102324.86;;;41.20;8.30
78094;BME280;67327;37.152;-76.406;2023-02-15T01:56:31;102322.44;;;40.93;8.31
78094;BME280;67327;37.152;-76.406;2023-02-15T01:58:55;102319.88;;;40.91;8.32
78094;BME280;67327;37.152;-76.406;2023-02-15T02:01:19;102319.70;;;41.13;8.33
78094;BME280;67327;37.152;-76.406;2023-02-15T02:03:53;102318.38;;;40.63;8.34
78094;BME280;67327;37.152;-76.406;2023-02-15T02:06:10;102313.49;;;41.10;8.35
78094;BME280;67327;37.152;-76.406;2023-02-15T02:08:34;102314.69;;;41.09;8.34
78094;BME280;67327;37.152;-76.406;2023-02-15T02:10:59;102325.36;;;40.84;8.36
78094;BME280;67327;37.152;-76.406;2023-02-15T02:13:26;102336.74;;;41.06;8.36
78094;BME280;67327;37.152;-76.406;2023-02-15T02:15:55;102343.02;;;41.05;8.38
78094;BME280;67327;37.152;-76.406;2023-02-15T02:18:26;102343.99;;;40.83;8.38
78094;BME280;67327;37.152;-76.406;2023-02-15T02:23:16;102336.25;;;40.83;8.37
78094;BME280;67327;37.152;-76.406;2023-02-15T02:25:42;102331.95;;;40.84;8.35
78094;BME280;67327;37.152;-76.406;2023-02-15T02:28:03;102329.21;;;41.09;8.37
78094;BME280;67327;37.152;-76.406;2023-02-15T02:30:30;102331.87;;;40.85;8.35
78094;BME280;67327;37.152;-76.406;2023-02-15T02:35:14;102322.01;;;41.07;8.36
78094;BME280;67327;37.152;-76.406;2023-02-15T02:37:41;102320.65;;;40.82;8.37
78094;BME280;67327;37.152;-76.406;2023-02-15T02:40:05;102319.81;;;41.04;8.38
78094;BME280;67327;37.152;-76.406;2023-02-15T02:42:29;102321.92;;;41.03;8.39
78094;BME280;67327;37.152;-76.406;2023-02-15T02:44:56;102321.24;;;41.02;8.40
78094;BME280;67327;37.152;-76.406;2023-02-15T02:47:21;102327.88;;;40.79;8.40
78094;BME280;67327;37.152;-76.406;2023-02-15T02:49:43;102330.37;;;41.01;8.40
78094;BME280;67327;37.152;-76.406;2023-02-15T02:54:32;102321.60;;;40.99;8.40
78094;BME280;67327;37.152;-76.406;2023-02-15T02:57:00;102332.84;;;40.51;8.42
78094;BME280;67327;37.152;-76.406;2023-02-15T02:59:26;102334.23;;;40.51;8.41
78094;BME280;67327;37.152;-76.406;2023-02-15T03:01:49;102336.50;;;40.75;8.42
78094;BME280;67327;37.152;-76.406;2023-02-15T03:04:16;102343.76;;;41.02;8.40
78094;BME280;67327;37.152;-76.406;2023-02-15T03:06:41;102350.04;;;40.76;8.40
78094;BME280;67327;37.152;-76.406;2023-02-15T03:09:08;102356.73;;;40.76;8.39
78094;BME280;67327;37.152;-76.406;2023-02-15T03:11:27;102360.61;;;40.77;8.40
78094;BME280;67327;37.152;-76.406;2023-02-15T03:13:52;102355.57;;;40.76;8.40
78094;BME280;67327;37.152;-76.406;2023-02-15T03:16:18;102354.04;;;40.51;8.40
78094;BME280;67327;37.152;-76.406;2023-02-15T03:18:45;102348.69;;;40.97;8.40
78094;BME280;67327;37.152;-76.406;2023-02-15T03:21:08;102337.51;;;40.70;8.40
78094;BME280;67327;37.152;-76.406;2023-02-15T03:23:33;102331.51;;;40.69;8.40
78094;BME280;67327;37.152;-76.406;2023-02-15T03:26:00;102341.38;;;40.67;8.40
78094;BME280;67327;37.152;-76.406;2023-02-15T03:28:29;102353.10;;;40.66;8.40
78094;BME280;67327;37.152;-76.406;2023-02-15T03:30:52;102350.47;;;40.64;8.41
78094;BME280;67327;37.152;-76.406;2023-02-15T03:33:14;102335.87;;;40.60;8.41
78094;BME280;67327;37.152;-76.406;2023-02-15T03:35:43;102329.99;;;40.82;8.40
78094;BME280;67327;37.152;-76.406;2023-02-15T03:38:06;102333.97;;;40.79;8.40
78094;BME280;67327;37.152;-76.406;2023-02-15T03:40:31;102336.27;;;40.77;8.41
78094;BME280;67327;37.152;-76.406;2023-02-15T03:42:59;102331.65;;;40.76;8.41
78094;BME280;67327;37.152;-76.406;2023-02-15T03:45:24;102329.33;;;40.75;8.39
78094;BME280;67327;37.152;-76.406;2023-02-15T03:47:47;102327.13;;;40.73;8.41
78094;BME280;67327;37.152;-76.406;2023-02-15T03:50:12;102321.76;;;40.69;8.42
78094;BME280;67327;37.152;-76.406;2023-02-15T03:52:35;102316.56;;;40.66;8.42
78094;BME280;67327;37.152;-76.406;2023-02-15T03:54:59;102316.21;;;40.63;8.43
78094;BME280;67327;37.152;-76.406;2023-02-15T03:57:26;102320.72;;;40.58;8.43
78094;BME280;67327;37.152;-76.406;2023-02-15T03:59:49;102311.85;;;40.31;8.45
78094;BME280;67327;37.152;-76.406;2023-02-15T04:02:20;102302.20;;;40.29;8.43
78094;BME280;67327;37.152;-76.406;2023-02-15T04:04:43;102300.00;;;40.50;8.43
78094;BME280;67327;37.152;-76.406;2023-02-15T04:07:07;102306.88;;;40.49;8.44
78094;BME280;67327;37.152;-76.406;2023-02-15T04:09:30;102310.66;;;40.47;8.44
78094;BME280;67327;37.152;-76.406;2023-02-15T04:11:55;102309.35;;;40.68;8.44
78094;BME280;67327;37.152;-76.406;2023-02-15T04:14:20;102306.09;;;40.41;8.44
78094;BME280;67327;37.152;-76.406;2023-02-15T04:16:45;102306.55;;;40.37;8.45
78094;BME280;67327;37.152;-76.406;2023-02-15T04:19:10;102300.94;;;40.34;8.45
78094;BME280;67327;37.152;-76.406;2023-02-15T04:21:36;102294.50;;;40.32;8.45
78094;BME280;67327;37.152;-76.406;2023-02-15T04:24:01;102298.91;;;40.29;8.46
78094;BME280;67327;37.152;-76.406;2023-02-15T04:26:26;102298.51;;;40.26;8.47
78094;BME280;67327;37.152;-76.406;2023-02-15T04:28:51;102292.70;;;40.23;8.47
78094;BME280;67327;37.152;-76.406;2023-02-15T04:31:16;102291.87;;;39.96;8.48
78094;BME280;67327;37.152;-76.406;2023-02-15T04:33:41;102286.31;;;40.41;8.48
78094;BME280;67327;37.152;-76.406;2023-02-15T04:36:06;102279.04;;;40.62;8.48
78094;BME280;67327;37.152;-76.406;2023-02-15T04:38:31;102273.09;;;40.37;8.49
78094;BME280;67327;37.152;-76.406;2023-02-15T04:40:57;102262.79;;;40.10;8.50
78094;BME280;67327;37.152;-76.406;2023-02-15T04:43:22;102259.97;;;40.33;8.50
78094;BME280;67327;37.152;-76.406;2023-02-15T04:45:48;102252.75;;;40.31;8.51
78094;BME280;67327;37.152;-76.406;2023-02-15T04:48:12;102247.05;;;40.04;8.50
78094;BME280;67327;37.152;-76.406;2023-02-15T04:50:37;102241.42;;;40.03;8.51
78094;BME280;67327;37.152;-76.406;2023-02-15T04:53:02;102235.71;;;40.25;8.50
78094;BME280;67327;37.152;-76.406;2023-02-15T04:55:27;102237.79;;;40.21;8.51
78094;BME280;67327;37.152;-76.406;2023-02-15T04:57:52;102234.39;;;40.16;8.53
78094;BME280;67327;37.152;-76.406;2023-02-15T05:00:18;102235.98;;;40.16;8.52
78094;BME280;67327;37.152;-76.406;2023-02-15T05:02:42;102230.84;;;40.18;8.51
78094;BME280;67327;37.152;-76.406;2023-02-15T05:05:08;102223.17;;;39.92;8.51
78094;BME280;67327;37.152;-76.406;2023-02-15T05:07:33;102212.01;;;40.13;8.53
78094;BME280;67327;37.152;-76.406;2023-02-15T05:09:58;102214.56;;;40.10;8.55
78094;BME280;67327;37.152;-76.406;2023-02-15T05:12:23;102209.36;;;40.07;8.53
78094;BME280;67327;37.152;-76.406;2023-02-15T05:14:48;102201.83;;;39.82;8.55
78094;BME280;67327;37.152;-76.406;2023-02-15T05:17:13;102200.99;;;39.80;8.56
78094;BME280;67327;37.152;-76.406;2023-02-15T05:19:38;102197.44;;;40.02;8.55
78094;BME280;67327;37.152;-76.406;2023-02-15T05:22:03;102194.22;;;40.01;8.55
78094;BME280;67327;37.152;-76.406;2023-02-15T05:24:29;102190.53;;;39.75;8.57
78094;BME280;67327;37.152;-76.406;2023-02-15T05:26:54;102182.96;;;40.20;8.57
78094;BME280;67327;37.152;-76.406;2023-02-15T05:29:19;102180.97;;;39.71;8.57
78094;BME280;67327;37.152;-76.406;2023-02-15T05:31:44;102186.63;;;40.18;8.58
78094;BME280;67327;37.152;-76.406;2023-02-15T05:34:09;102189.78;;;39.92;8.58
78094;BME280;67327;37.152;-76.406;2023-02-15T05:36:34;102192.39;;;40.14;8.58
78094;BME280;67327;37.152;-76.406;2023-02-15T05:38:59;102194.42;;;39.89;8.57
78094;BME280;67327;37.152;-76.406;2023-02-15T05:41:24;102184.57;;;40.11;8.58
78094;BME280;67327;37.152;-76.406;2023-02-15T05:43:50;102179.34;;;40.08;8.60
78094;BME280;67327;37.152;-76.406;2023-02-15T05:46:15;102179.37;;;39.84;8.59
78094;BME280;67327;37.152;-76.406;2023-02-15T05:48:40;102178.20;;;39.58;8.60
78094;BME280;67327;37.152;-76.406;2023-02-15T05:51:07;102182.73;;;39.80;8.59
78094;BME280;67327;37.152;-76.406;2023-02-15T05:53:32;102193.11;;;40.02;8.60
78094;BME280;67327;37.152;-76.406;2023-02-15T05:55:56;102190.54;;;40.02;8.60
78094;BME280;67327;37.152;-76.406;2023-02-15T05:58:20;102184.64;;;39.77;8.58
78094;BME280;67327;37.152;-76.406;2023-02-15T06:00:45;102186.78;;;39.98;8.60
78094;BME280;67327;37.152;-76.406;2023-02-15T06:03:11;102188.05;;;39.70;8.62
78094;BME280;67327;37.152;-76.406;2023-02-15T06:05:36;102189.33;;;39.68;8.61
78094;BME280;67327;37.152;-76.406;2023-02-15T06:08:01;102187.31;;;39.92;8.63
78094;BME280;67327;37.152;-76.406;2023-02-15T06:10:26;102182.88;;;39.90;8.62
78094;BME280;67327;37.152;-76.406;2023-02-15T06:12:51;102185.18;;;39.66;8.60
78094;BME280;67327;37.152;-76.406;2023-02-15T06:15:16;102185.56;;;39.65;8.60
78094;BME280;67327;37.152;-76.406;2023-02-15T06:17:42;102176.87;;;39.40;8.61
78094;BME280;67327;37.152;-76.406;2023-02-15T06:20:07;102174.81;;;39.40;8.60
78094;BME280;67327;37.152;-76.406;2023-02-15T06:22:32;102167.23;;;39.62;8.61
78094;BME280;67327;37.152;-76.406;2023-02-15T06:24:57;102160.73;;;39.85;8.57
78094;BME280;67327;37.152;-76.406;2023-02-15T06:27:22;102154.06;;;39.36;8.61
78094;BME280;67327;37.152;-76.406;2023-02-15T06:29:47;102155.49;;;39.57;8.61
78094;BME280;67327;37.152;-76.406;2023-02-15T06:32:12;102160.75;;;39.79;8.62
78094;BME280;67327;37.152;-76.406;2023-02-15T06:34:37;102162.10;;;39.77;8.63
78094;BME280;67327;37.152;-76.406;2023-02-15T06:37:02;102158.03;;;39.51;8.62
78094;BME280;67327;37.152;-76.406;2023-02-15T06:39:27;102153.95;;;39.74;8.63
78094;BME280;67327;37.152;-76.406;2023-02-15T06:41:52;102158.67;;;39.49;8.63
78094;BME280;67327;37.152;-76.406;2023-02-15T06:44:18;102156.12;;;39.71;8.62
78094;BME280;67327;37.152;-76.406;2023-02-15T06:46:43;102162.69;;;39.72;8.63
78094;BME280;67327;37.152;-76.406;2023-02-15T06:49:08;102181.36;;;39.46;8.62
78094;BME280;67327;37.152;-76.406;2023-02-15T06:51:33;102192.57;;;39.68;8.63
78094;BME280;67327;37.152;-76.406;2023-02-15T06:53:58;102194.71;;;39.65;8.64
78094;BME280;67327;37.152;-76.406;2023-02-15T06:56:23;102202.21;;;39.63;8.64
78094;BME280;67327;37.152;-76.406;2023-02-15T06:58:48;102207.55;;;39.63;8.65
78094;BME280;67327;37.152;-76.406;2023-02-15T07:01:13;102206.53;;;39.61;8.64
78094;BME280;67327;37.152;-76.406;2023-02-15T07:03:39;102208.66;;;39.59;8.63
78094;BME280;67327;37.152;-76.406;2023-02-15T07:06:04;102203.23;;;39.34;8.65
78094;BME280;67327;37.152;-76.406;2023-02-15T07:08:29;102209.13;;;39.57;8.65
78094;BME280;67327;37.152;-76.406;2023-02-15T07:10:55;102210.14;;;39.57;8.65
78094;BME280;67327;37.152;-76.406;2023-02-15T07:13:20;102224.54;;;39.55;8.65
78094;BME280;67327;37.152;-76.406;2023-02-15T07:15:44;102249.66;;;39.54;8.65
78094;BME280;67327;37.152;-76.406;2023-02-15T07:18:09;102255.05;;;39.54;8.65
78094;BME280;67327;37.152;-76.406;2023-02-15T07:20:35;102254.89;;;39.52;8.64
78094;BME280;67327;37.152;-76.406;2023-02-15T07:23:00;102256.66;;;39.50;8.65
78094;BME280;67327;37.152;-76.406;2023-02-15T07:25:25;102251.01;;;39.48;8.68
78094;BME280;67327;37.152;-76.406;2023-02-15T07:27:56;102240.43;;;39.47;8.66
78094;BME280;67327;37.152;-76.406;2023-02-15T07:30:16;102238.29;;;39.22;8.65
78094;BME280;67327;37.152;-76.406;2023-02-15T07:32:40;102240.84;;;39.45;8.65
78094;BME280;67327;37.152;-76.406;2023-02-15T07:35:05;102232.53;;;39.20;8.65
78094;BME280;67327;37.152;-76.406;2023-02-15T07:37:30;102235.64;;;39.42;8.66
78094;BME280;67327;37.152;-76.406;2023-02-15T07:39:55;102236.28;;;39.40;8.65
78094;BME280;67327;37.152;-76.406;2023-02-15T07:42:20;102228.50;;;39.39;8.66
78094;BME280;67327;37.152;-76.406;2023-02-15T07:44:46;102223.24;;;39.38;8.66
78094;BME280;67327;37.152;-76.406;2023-02-15T07:47:11;102219.79;;;39.37;8.66
78094;BME280;67327;37.152;-76.406;2023-02-15T07:49:36;102213.27;;;39.35;8.66
78094;BME280;67327;37.152;-76.406;2023-02-15T07:52:01;102213.59;;;39.33;8.67
78094;BME280;67327;37.152;-76.406;2023-02-15T07:54:26;102212.51;;;39.31;8.66
78094;BME280;67327;37.152;-76.406;2023-02-15T07:56:51;102205.31;;;39.30;8.69
78094;BME280;67327;37.152;-76.406;2023-02-15T07:59:16;102200.97;;;39.52;8.68
78094;BME280;67327;37.152;-76.406;2023-02-15T08:01:42;102191.71;;;39.25;8.69
78094;BME280;67327;37.152;-76.406;2023-02-15T08:04:08;102188.19;;;39.23;8.70
78094;BME280;67327;37.152;-76.406;2023-02-15T08:06:34;102182.41;;;39.21;8.69
78094;BME280;67327;37.152;-76.406;2023-02-15T08:08:57;102186.48;;;39.19;8.70
78094;BME280;67327;37.152;-76.406;2023-02-15T08:11:23;102180.88;;;39.20;8.68
78094;BME280;67327;37.152;-76.406;2023-02-15T08:13:49;102180.14;;;39.17;8.70
78094;BME280;67327;37.152;-76.406;2023-02-15T08:16:12;102184.50;;;39.12;8.69
78094;BME280;67327;37.152;-76.406;2023-02-15T08:18:37;102193.62;;;39.08;8.72
78094;BME280;67327;37.152;-76.406;2023-02-15T08:21:03;102200.99;;;39.05;8.72
78094;BME280;67327;37.152;-76.406;2023-02-15T08:23:28;102200.91;;;39.01;8.74
78094;BME280;67327;37.152;-76.406;2023-02-15T08:25:53;102208.87;;;39.22;8.75
78094;BME280;67327;37.152;-76.406;2023-02-15T08:28:18;102204.53;;;38.94;8.76
78094;BME280;67327;37.152;-76.406;2023-02-15T08:30:43;102199.19;;;38.93;8.75
78094;BME280;67327;37.152;-76.406;2023-02-15T08:33:08;102197.69;;;38.90;8.77
78094;BME280;67327;37.152;-76.406;2023-02-15T08:35:34;102191.61;;;38.87;8.78
78094;BME280;67327;37.152;-76.406;2023-02-15T08:37:58;102199.13;;;38.86;8.77
78094;BME280;67327;37.152;-76.406;2023-02-15T08:40:24;102200.31;;;38.86;8.77
78094;BME280;67327;37.152;-76.406;2023-02-15T08:42:49;102201.67;;;38.86;8.76
78094;BME280;67327;37.152;-76.406;2023-02-15T08:45:14;102193.07;;;38.88;8.76
78094;BME280;67327;37.152;-76.406;2023-02-15T08:47:39;102184.75;;;38.89;8.75
78094;BME280;67327;37.152;-76.406;2023-02-15T08:50:05;102183.18;;;38.91;8.73
78094;BME280;67327;37.152;-76.406;2023-02-15T08:52:29;102179.45;;;38.91;8.74
78094;BME280;67327;37.152;-76.406;2023-02-15T08:54:54;102172.95;;;38.91;8.72
78094;BME280;67327;37.152;-76.406;2023-02-15T08:57:19;102156.02;;;38.91;8.74
78094;BME280;67327;37.152;-76.406;2023-02-15T08:59:45;102134.49;;;38.90;8.72
78094;BME280;67327;37.152;-76.406;2023-02-15T09:02:10;102130.31;;;38.89;8.74
78094;BME280;67327;37.152;-76.406;2023-02-15T09:04:35;102127.52;;;38.89;8.71
78094;BME280;67327;37.152;-76.406;2023-02-15T09:07:00;102131.38;;;38.91;8.72
78094;BME280;67327;37.152;-76.406;2023-02-15T09:09:25;102123.06;;;38.88;8.72
78094;BME280;67327;37.152;-76.406;2023-02-15T09:11:51;102121.28;;;38.88;8.71
78094;BME280;67327;37.152;-76.406;2023-02-15T09:14:17;102107.79;;;38.86;8.72
78094;BME280;67327;37.152;-76.406;2023-02-15T09:16:42;102102.54;;;38.83;8.72
78094;BME280;67327;37.152;-76.406;2023-02-15T09:19:06;102096.04;;;38.78;8.73
78094;BME280;67327;37.152;-76.406;2023-02-15T09:21:32;102093.66;;;39.25;8.73
78094;BME280;67327;37.152;-76.406;2023-02-15T09:23:58;102091.09;;;39.00;8.74
78094;BME280;67327;37.152;-76.406;2023-02-15T09:26:23;102087.12;;;38.76;8.73
78094;BME280;67327;37.152;-76.406;2023-02-15T09:28:47;102086.08;;;38.77;8.71
78094;BME280;67327;37.152;-76.406;2023-02-15T09:31:13;102077.10;;;38.78;8.72
78094;BME280;67327;37.152;-76.406;2023-02-15T09:33:37;102065.79;;;39.03;8.71
78094;BME280;67327;37.152;-76.406;2023-02-15T09:36:02;102058.67;;;38.81;8.70
78094;BME280;67327;37.152;-76.406;2023-02-15T09:38:26;102050.11;;;38.84;8.70
78094;BME280;67327;37.152;-76.406;2023-02-15T09:41:00;102055.99;;;38.87;8.67
78094;BME280;67327;37.152;-76.406;2023-02-15T09:43:28;102045.76;;;39.39;8.68
78094;BME280;67327;37.152;-76.406;2023-02-15T09:45:52;102047.70;;;38.95;8.66
78094;BME280;67327;37.152;-76.406;2023-02-15T09:48:21;102056.81;;;38.97;8.65
78094;BME280;67327;37.152;-76.406;2023-02-15T09:50:38;102049.39;;;39.22;8.65
78094;BME280;67327;37.152;-76.406;2023-02-15T09:53:09;102049.05;;;38.97;8.66
78094;BME280;67327;37.152;-76.406;2023-02-15T09:55:35;102066.69;;;38.96;8.67
78094;BME280;67327;37.152;-76.406;2023-02-15T09:57:54;102071.99;;;38.97;8.65
78094;BME280;67327;37.152;-76.406;2023-02-15T10:00:20;102100.04;;;38.97;8.67
78094;BME280;67327;37.152;-76.406;2023-02-15T10:02:50;102123.80;;;38.97;8.67
78094;BME280;67327;37.152;-76.406;2023-02-15T10:05:14;102132.92;;;38.95;8.67
78094;BME280;67327;37.152;-76.406;2023-02-15T10:07:40;102136.05;;;38.94;8.66
78094;BME280;67327;37.152;-76.406;2023-02-15T10:10:03;102138.76;;;38.93;8.67
78094;BME280;67327;37.152;-76.406;2023-02-15T10:12:31;102136.11;;;39.16;8.66
78094;BME280;67327;37.152;-76.406;2023-02-15T10:14:55;102140.59;;;38.89;8.66
78094;BME280;67327;37.152;-76.406;2023-02-15T10:17:19;102139.05;;;38.86;8.67
78094;BME280;67327;37.152;-76.406;2023-02-15T10:19:39;102153.21;;;38.84;8.68
78094;BME280;67327;37.152;-76.406;2023-02-15T10:22:06;102162.14;;;39.31;8.68
78094;BME280;67327;37.152;-76.406;2023-02-15T10:24:36;102156.25;;;39.30;8.68
78094;BME280;67327;37.152;-76.406;2023-02-15T10:26:50;102149.04;;;38.82;8.66
78094;BME280;67327;37.152;-76.406;2023-02-15T10:29:25;102136.05;;;38.82;8.68
78094;BME280;67327;37.152;-76.406;2023-02-15T10:31:48;102147.38;;;38.82;8.67
78094;BME280;67327;37.152;-76.406;2023-02-15T10:34:16;102132.77;;;38.81;8.67
78094;BME280;67327;37.152;-76.406;2023-02-15T10:36:40;102122.61;;;39.32;8.67
78094;BME280;67327;37.152;-76.406;2023-02-15T10:39:01;102121.64;;;39.34;8.66
78094;BME280;67327;37.152;-76.406;2023-02-15T10:41:29;102132.82;;;38.88;8.65
78094;BME280;67327;37.152;-76.406;2023-02-15T10:43:58;102136.49;;;38.88;8.64
78094;BME280;67327;37.152;-76.406;2023-02-15T10:46:19;102131.37;;;39.13;8.62
78094;BME280;67327;37.152;-76.406;2023-02-15T10:48:50;102125.34;;;38.91;8.64
78094;BME280;67327;37.152;-76.406;2023-02-15T10:51:02;102114.21;;;38.91;8.63
78094;BME280;67327;37.152;-76.406;2023-02-15T10:55:58;102089.97;;;38.87;8.63
78094;BME280;67327;37.152;-76.406;2023-02-15T10:58:24;102097.34;;;39.08;8.64
78094;BME280;67327;37.152;-76.406;2023-02-15T11:00:46;102100.96;;;38.81;8.64
78094;BME280;67327;37.152;-76.406;2023-02-15T11:03:19;102116.51;;;39.04;8.63
78094;BME280;67327;37.152;-76.406;2023-02-15T11:05:41;102098.20;;;38.80;8.63
78094;BME280;67327;37.152;-76.406;2023-02-15T11:07:58;102097.40;;;38.79;8.62
78094;BME280;67327;37.152;-76.406;2023-02-15T11:10:29;102103.77;;;38.79;8.63
78094;BME280;67327;37.152;-76.406;2023-02-15T11:12:47;102114.30;;;38.78;8.63
78094;BME280;67327;37.152;-76.406;2023-02-15T11:15:27;102119.84;;;38.79;8.62
78094;BME280;67327;37.152;-76.406;2023-02-15T11:17:41;102118.00;;;38.80;8.63
78094;BME280;67327;37.152;-76.406;2023-02-15T11:20:09;102110.69;;;38.80;8.63
78094;BME280;67327;37.152;-76.406;2023-02-15T11:22:27;102120.46;;;39.05;8.63
78094;BME280;67327;37.152;-76.406;2023-02-15T11:24:52;102111.59;;;38.82;8.63
78094;BME280;67327;37.152;-76.406;2023-02-15T11:27:20;102116.42;;;39.07;8.60
78094;BME280;67327;37.152;-76.406;2023-02-15T11:29:52;102114.16;;;38.85;8.62
78094;BME280;67327;37.152;-76.406;2023-02-15T11:32:18;102109.52;;;39.35;8.60
78094;BME280;67327;37.152;-76.406;2023-02-15T11:34:35;102109.80;;;39.10;8.58
78094;BME280;67327;37.152;-76.406;2023-02-15T11:37:01;102101.76;;;38.87;8.56
78094;BME280;67327;37.152;-76.406;2023-02-15T11:39:24;102091.97;;;39.13;8.55
78094;BME280;67327;37.152;-76.406;2023-02-15T11:41:50;102090.44;;;38.92;8.54
78094;BME280;67327;37.152;-76.406;2023-02-15T11:44:16;102082.91;;;39.17;8.54
78094;BME280;67327;37.152;-76.406;2023-02-15T11:46:38;102077.32;;;38.95;8.52
78094;BME280;67327;37.152;-76.406;2023-02-15T11:49:07;102089.14;;;38.99;8.51
78094;BME280;67327;37.152;-76.406;2023-02-15T11:51:29;102095.13;;;39.04;8.53
78094;BME280;67327;37.152;-76.406;2023-02-15T11:53:53;102101.00;;;39.08;8.52
78094;BME280;67327;37.152;-76.406;2023-02-15T11:56:21;102103.18;;;39.14;8.54
78094;BME280;67327;37.152;-76.406;2023-02-15T11:58:47;102106.69;;;39.27;8.52
78094;BME280;67327;37.152;-76.406;2023-02-15T12:01:14;102104.59;;;39.43;8.47
78094;BME280;67327;37.152;-76.406;2023-02-15T12:03:43;102114.91;;;39.56;8.45
78094;BME280;67327;37.152;-76.406;2023-02-15T12:06:03;102114.19;;;39.41;8.45
78094;BME280;67327;37.152;-76.406;2023-02-15T12:08:24;102111.54;;;39.74;8.44
78094;BME280;67327;37.152;-76.406;2023-02-15T12:11:03;102119.73;;;39.84;8.44
78094;BME280;67327;37.152;-76.406;2023-02-15T12:13:17;102130.17;;;39.71;8.41
78094;BME280;67327;37.152;-76.406;2023-02-15T12:15:42;102132.86;;;39.81;8.41
78094;BME280;67327;37.152;-76.406;2023-02-15T12:18:05;102161.73;;;39.64;8.41
78094;BME280;67327;37.152;-76.406;2023-02-15T12:20:32;102159.29;;;40.00;8.40
78094;BME280;67327;37.152;-76.406;2023-02-15T12:22:59;102151.42;;;40.08;8.39
78094;BME280;67327;37.152;-76.406;2023-02-15T12:25:23;102144.48;;;39.91;8.40
78094;BME280;67327;37.152;-76.406;2023-02-15T12:27:46;102126.12;;;39.99;8.40
78094;BME280;67327;37.152;-76.406;2023-02-15T12:30:18;102131.46;;;40.07;8.41
78094;BME280;67327;37.152;-76.406;2023-02-15T12:32:49;102138.67;;;40.17;8.40
78094;BME280;67327;37.152;-76.406;2023-02-15T12:35:02;102132.91;;;40.25;8.39
78094;BME280;67327;37.152;-76.406;2023-02-15T12:37:28;102127.39;;;40.08;8.39